This is the latest recevied weather packets stored in our database for station/object W7PLC. If no packets are shown the sender has not sent any weather packets the latest 10 day(s).
| Time | Temp. | Humidity | Pressure | Rain* | Wind** | Luminosity | Snow |
|---|---|---|---|---|---|---|---|
| 1777958402 | 13.33° C | 88% | 1010.2 hPa | 0 mm | - | 0 W/m² | - |
| 1777958098 | 13.33° C | 87% | 1010.2 hPa | 0 mm | - | 0 W/m² | - |
| 1777957797 | 13.33° C | 87% | 1010 hPa | 0 mm | - | 0 W/m² | - |
| 1777957495 | 13.89° C | 87% | 1010.3 hPa | 0 mm | - | 0 W/m² | - |
| 1777957191 | 13.89° C | 87% | 1010.1 hPa | 0 mm | - | 0 W/m² | - |
| 1777956888 | 13.89° C | 87% | 1010 hPa | 0 mm | - | 0 W/m² | - |
| 1777956585 | 13.89° C | 86% | 1010.2 hPa | 0 mm | - | 0 W/m² | - |
| 1777956282 | 13.89° C | 85% | 1010 hPa | 0 mm | - | 0 W/m² | - |
| 1777955978 | 13.89° C | 85% | 1009.9 hPa | 0 mm | - | 0 W/m² | - |
| 1777955675 | 13.89° C | 85% | 1009.8 hPa | 0 mm | - | 0 W/m² | - |
| 1777955372 | 13.89° C | 84% | 1009.8 hPa | 0 mm | - | 0 W/m² | - |
| 1777955068 | 13.89° C | 84% | 1010 hPa | 0 mm | - | 0 W/m² | - |
| 1777954765 | 13.89° C | 84% | 1009.7 hPa | 0 mm | - | 0 W/m² | - |
| 1777954462 | 14.44° C | 84% | 1009.7 hPa | 0 mm | - | 0 W/m² | - |
| 1777954159 | 14.44° C | 83% | 1009.7 hPa | 0 mm | - | 0 W/m² | - |
| 1777953857 | 14.44° C | 82% | 1009.6 hPa | 0 mm | - | 0 W/m² | - |
| 1777953553 | 14.44° C | 82% | 1009.6 hPa | 0 mm | - | 0 W/m² | - |
| 1777942337 | 22.78° C | 57% | 1008.8 hPa | 0 mm | - | 32 W/m² | - |
| 1777940216 | 24.44° C | 53% | 1008.5 hPa | 0 mm | - | 275 W/m² | - |
| 1777939914 | 25° C | 52% | 1008.5 hPa | 0 mm | - | 265 W/m² | - |
| 1777938399 | 25.56° C | 50% | 1008.5 hPa | 0 mm | - | 432 W/m² | - |
| 1777934458 | 27.22° C | 46% | 1008.7 hPa | 0 mm | - | 665 W/m² | - |
| 1777934155 | 26.67° C | 46% | 1008.8 hPa | 0 mm | - | 701 W/m² | - |
| 1777933245 | 26.67° C | 48% | 1008.9 hPa | 0 mm | - | 710 W/m² | - |
| 1777929606 | 27.78° C | 47% | 1009.2 hPa | 0 mm | - | 685 W/m² | - |
* Rain latest hour (hover to see other rain measurements)
** Current wind speed in m/s (hover to see current wind gust speed)